Weather History for Litchfield, MN

Change the Weather History Date:

Wednesday, December 19, 2012

  Actual Average Record
Temperature  
Mean Temperature 22 °F -  
Max Temperature 30 °F 24 °F 45 °F (1956)
Min Temperature 14 °F 6 °F -34 °F (1983)
Degree Days  
Heating Degree Days 43    
Moisture  
Dew Point 21 °F    
Average Humidity 94    
Maximum Humidity 100    
Minimum Humidity 80    
Precipitation  
Precipitation 0.00 in - - ()
Sea Level Pressure  
Sea Level Pressure 29.93 in    
Wind  
Wind Speed 3 mph (West)    
Max Wind Speed 12 mph    
Max Gust Speed -    
Visibility 9 miles    
Events      
Averages and records for this station are not official NWS values.
T = Trace of Precipitation, MM = Missing Value Source: NWS Daily Summary

Daily Weather History Graph

Daily Weather History Graph

Search for Another Location

Airport:

Trip Planner

Search our weather history database for the weather conditions in past years. The results will help you decide how hot, cold, wet, or windy it might be!

Date:

Astronomy

Dec. 19, 2012 Rise Set
Actual Time 7:52 AM CST 4:38 PM CST
Civil Twilight 7:18 AM CST 5:12 PM CST
Nautical Twilight 6:41 AM CST 5:49 PM CST
Astronomical Twilight 6:05 AM CST 6:25 PM CST
Moon 11:44 AM CST (12/19) No Moon Set
Length of Visible Light 9h 53m
Length of Day
8h 45m
Waxing Crescent, 45% of the Moon is Illuminated
Dec 19
Waxing Crescent
Dec 19
First Quarter
Dec 28
Full
Jan 4
Last Quarter
Jan 11
New

Hourly Weather History & Observations

Time (CST) Temp. Windchill Dew Point Humidity Pressure Visibility Wind Dir Wind Speed Gust Speed Precip Events Conditions
12:13 AM 28.4 °F 24.6 °F 28.4 °F 100% 29.80 in 7.0 mi WSW 3.5 mph - N/A   Overcast
12:33 AM 30.2 °F 23.4 °F 28.4 °F 93% 29.80 in 7.0 mi WSW 6.9 mph - N/A   Overcast
12:53 AM 28.4 °F 20.4 °F 28.4 °F 100% 29.81 in 10.0 mi WSW 8.1 mph - N/A   Overcast
1:13 AM 28.4 °F 20.4 °F 28.4 °F 100% 29.82 in 10.0 mi WSW 8.1 mph - N/A   Overcast
1:33 AM 28.4 °F 22.2 °F 28.4 °F 100% 29.82 in 10.0 mi WSW 5.8 mph - N/A   Overcast
1:53 AM 28.4 °F 23.3 °F 28.4 °F 100% 29.82 in 10.0 mi WSW 4.6 mph - N/A   Overcast
2:13 AM 28.4 °F 23.3 °F 28.4 °F 100% 29.83 in 7.0 mi WSW 4.6 mph - N/A   Overcast
2:33 AM 28.4 °F 23.3 °F 26.6 °F 93% 29.83 in 7.0 mi WSW 4.6 mph - N/A   Overcast
2:53 AM 24.8 °F 20.5 °F 24.8 °F 100% 29.83 in 7.0 mi SW 3.5 mph - N/A   Scattered Clouds
3:13 AM 24.8 °F - 24.8 °F 100% 29.83 in 7.0 mi Calm Calm - N/A   Clear
3:33 AM 23.0 °F - 23.0 °F 100% 29.83 in 5.0 mi Calm Calm - N/A   Clear
3:53 AM 21.2 °F - 21.2 °F 100% 29.83 in 5.0 mi Calm Calm - N/A   Clear
4:13 AM 21.2 °F - 21.2 °F 100% 29.83 in 4.0 mi Calm Calm - N/A   Mostly Cloudy
4:33 AM 19.4 °F 14.3 °F 19.4 °F 100% 29.84 in 2.0 mi SW 3.5 mph - N/A   Overcast
4:53 AM 17.6 °F - 17.6 °F 100% 29.84 in 4.0 mi Calm Calm - N/A   Mist
5:13 AM 19.4 °F - 19.4 °F 100% 29.85 in 7.0 mi Calm Calm - N/A   Unknown
5:33 AM 17.6 °F 12.3 °F 17.6 °F 100% 29.86 in 7.0 mi SW 3.5 mph - N/A   Unknown
5:53 AM 17.6 °F 12.3 °F 17.6 °F 100% 29.87 in 7.0 mi SW 3.5 mph - N/A   Unknown
6:13 AM 17.6 °F 12.3 °F 17.6 °F 100% 29.88 in 10.0 mi SW 3.5 mph - N/A   Clear
6:34 AM 17.6 °F 12.3 °F 17.6 °F 100% 29.89 in 10.0 mi SSW 3.5 mph - N/A   Clear
6:53 AM 17.6 °F 12.3 °F 17.6 °F 100% 29.89 in 10.0 mi SSW 3.5 mph - N/A   Clear
7:13 AM 15.8 °F - 15.8 °F 100% 29.89 in 10.0 mi Calm Calm - N/A   Clear
7:34 AM 14.0 °F - 14.0 °F 100% 29.90 in 10.0 mi Calm Calm - N/A   Clear
7:53 AM 15.8 °F - 15.8 °F 100% 29.90 in 10.0 mi Calm Calm - N/A   Clear
8:13 AM 14.0 °F - 12.2 °F 93% 29.90 in 7.0 mi Calm Calm - N/A   Clear
8:53 AM 15.8 °F - 15.8 °F 100% 29.91 in 10.0 mi Calm Calm - N/A   Clear
9:13 AM 15.8 °F - 15.8 °F 100% 29.90 in 7.0 mi Calm Calm - N/A   Clear
9:33 AM 17.6 °F - 17.6 °F 100% 29.91 in 7.0 mi Calm Calm - N/A   Clear
9:53 AM 19.4 °F - 19.4 °F 100% 29.92 in 10.0 mi Calm Calm - N/A   Clear
10:14 AM 19.4 °F 14.3 °F 19.4 °F 100% 29.94 in 10.0 mi SSW 3.5 mph - N/A   Clear
10:33 AM 19.4 °F - 19.4 °F 100% 29.95 in 10.0 mi Calm Calm - N/A   Clear
10:53 AM 21.2 °F - 21.2 °F 100% 29.96 in 10.0 mi Calm Calm - N/A   Clear
11:13 AM 23.0 °F - 21.2 °F 93% 29.96 in 10.0 mi Calm Calm - N/A   Clear
11:33 AM 24.8 °F - 23.0 °F 93% 29.96 in 10.0 mi Calm Calm - N/A   Clear
11:53 AM 24.8 °F - 23.0 °F 93% 29.95 in 10.0 mi Calm Calm - N/A   Clear
12:13 PM 26.6 °F - 23.0 °F 86% 29.95 in 10.0 mi Calm Calm - N/A   Clear
12:33 PM 26.6 °F - 24.8 °F 93% 29.94 in 10.0 mi Calm Calm - N/A   Clear
12:53 PM 28.4 °F - 24.8 °F 86% 29.94 in 10.0 mi Calm Calm - N/A   Clear
1:13 PM 28.4 °F 22.2 °F 24.8 °F 86% 29.95 in 10.0 mi SW 5.8 mph - N/A   Clear
1:33 PM 28.4 °F - 24.8 °F 86% 29.95 in 10.0 mi Calm Calm - N/A   Clear
1:53 PM 28.4 °F - 24.8 °F 86% 29.95 in 10.0 mi Calm Calm - N/A   Clear
2:13 PM 26.6 °F - 24.8 °F 93% 29.96 in 10.0 mi Calm Calm - N/A   Clear
2:33 PM 26.6 °F - 24.8 °F 93% 29.96 in 10.0 mi Calm Calm - N/A   Clear
2:53 PM 24.8 °F - 23.0 °F 93% 29.96 in 10.0 mi Calm Calm - N/A   Clear
3:13 PM 24.8 °F - 23.0 °F 93% 29.97 in 10.0 mi Calm Calm - N/A   Clear
3:33 PM 24.8 °F - 23.0 °F 93% 29.97 in 10.0 mi Calm Calm - N/A   Scattered Clouds
3:53 PM 24.8 °F - 23.0 °F 93% 29.96 in 10.0 mi Calm Calm - N/A   Scattered Clouds
4:13 PM 24.8 °F - 23.0 °F 93% 29.96 in 10.0 mi Calm Calm - N/A   Scattered Clouds
4:33 PM 24.8 °F - 23.0 °F 93% 29.96 in 10.0 mi Calm Calm - N/A   Scattered Clouds
4:53 PM 24.8 °F - 23.0 °F 93% 29.97 in 10.0 mi Calm Calm - N/A   Scattered Clouds
5:13 PM 24.8 °F 20.5 °F 23.0 °F 93% 29.97 in 10.0 mi WNW 3.5 mph - N/A   Clear
5:33 PM 23.0 °F - 21.2 °F 93% 29.97 in 10.0 mi Calm Calm - N/A   Clear
5:53 PM 23.0 °F - 21.2 °F 93% 29.98 in 10.0 mi Calm Calm - N/A   Clear
6:13 PM 23.0 °F - 21.2 °F 93% 29.98 in 10.0 mi Calm Calm - N/A   Clear
6:34 PM 23.0 °F 18.4 °F 21.2 °F 93% 29.98 in 10.0 mi West 3.5 mph - N/A   Clear
6:53 PM 23.0 °F 15.8 °F 21.2 °F 93% 29.99 in 10.0 mi West 5.8 mph - N/A   Clear
7:13 PM 24.8 °F 20.5 °F 21.2 °F 86% 30.01 in 10.0 mi West 3.5 mph - N/A   Scattered Clouds
7:33 PM 24.8 °F 17.9 °F 19.4 °F 80% 30.03 in 10.0 mi WNW 5.8 mph - N/A   Mostly Cloudy
7:53 PM 24.8 °F 16.9 °F 19.4 °F 80% 30.04 in 10.0 mi WNW 6.9 mph - N/A   Mostly Cloudy
8:13 PM 24.8 °F 16.9 °F 19.4 °F 80% 30.03 in 10.0 mi NW 6.9 mph - N/A   Mostly Cloudy
8:34 PM 23.0 °F 15.8 °F 19.4 °F 86% 30.03 in 10.0 mi WNW 5.8 mph - N/A   Mostly Cloudy
8:53 PM 23.0 °F 17.0 °F 19.4 °F 86% 30.03 in 10.0 mi NW 4.6 mph - N/A   Mostly Cloudy
9:13 PM 21.2 °F 13.6 °F 19.4 °F 93% 30.02 in 10.0 mi NW 5.8 mph - N/A   Mostly Cloudy
9:34 PM 21.2 °F 10.1 °F 17.6 °F 86% 30.00 in 10.0 mi NNW 10.4 mph - N/A   Mostly Cloudy
9:53 PM 21.2 °F 10.9 °F 17.6 °F 86% 29.99 in 10.0 mi NNW 9.2 mph - N/A   Scattered Clouds
10:13 PM 21.2 °F 9.5 °F 17.6 °F 86% 29.98 in 10.0 mi NNW 11.5 mph - N/A   Clear
10:34 PM 19.4 °F 8.6 °F 17.6 °F 93% 29.97 in 10.0 mi NNW 9.2 mph - N/A   Clear
10:53 PM 19.4 °F 8.6 °F 17.6 °F 93% 29.98 in 10.0 mi NNW 9.2 mph - N/A   Clear
11:13 PM 19.4 °F 9.5 °F 17.6 °F 93% 29.99 in 10.0 mi NNW 8.1 mph - N/A   Clear
11:34 PM 19.4 °F 9.5 °F 17.6 °F 93% 30.00 in 10.0 mi NNW 8.1 mph - N/A   Scattered Clouds
11:53 PM 19.4 °F 8.6 °F 17.6 °F 93% 29.99 in 10.0 mi NNW 9.2 mph - N/A   Mostly Cloudy